sensor_id;sensor_type;location;lat;lon;timestamp;P1;durP1;ratioP1;P2;durP2;ratioP2
54561;SDS011;69047;53.358;-1.486;2024-03-02T00:00:26;41.60;;;18.98;;
54561;SDS011;69047;53.358;-1.486;2024-03-02T00:02:52;49.92;;;23.45;;
54561;SDS011;69047;53.358;-1.486;2024-03-02T00:05:21;50.60;;;25.52;;
54561;SDS011;69047;53.358;-1.486;2024-03-02T00:07:56;52.58;;;21.27;;
54561;SDS011;69047;53.358;-1.486;2024-03-02T00:10:25;39.33;;;15.38;;
54561;SDS011;69047;53.358;-1.486;2024-03-02T00:13:04;29.27;;;14.52;;
54561;SDS011;69047;53.358;-1.486;2024-03-02T00:18:13;36.38;;;14.48;;
54561;SDS011;69047;53.358;-1.486;2024-03-02T00:20:41;28.40;;;13.48;;
54561;SDS011;69047;53.358;-1.486;2024-03-02T00:23:08;28.48;;;14.50;;
54561;SDS011;69047;53.358;-1.486;2024-03-02T00:25:43;32.20;;;15.00;;
54561;SDS011;69047;53.358;-1.486;2024-03-02T00:28:19;35.13;;;16.25;;
54561;SDS011;69047;53.358;-1.486;2024-03-02T00:33:19;29.27;;;14.85;;
54561;SDS011;69047;53.358;-1.486;2024-03-02T00:35:46;33.60;;;16.55;;
54561;SDS011;69047;53.358;-1.486;2024-03-02T00:38:12;37.80;;;18.17;;
54561;SDS011;69047;53.358;-1.486;2024-03-02T00:40:40;36.42;;;18.20;;
54561;SDS011;69047;53.358;-1.486;2024-03-02T00:43:07;35.72;;;15.75;;
54561;SDS011;69047;53.358;-1.486;2024-03-02T00:45:49;33.70;;;15.43;;
54561;SDS011;69047;53.358;-1.486;2024-03-02T00:48:15;30.77;;;15.27;;
54561;SDS011;69047;53.358;-1.486;2024-03-02T00:50:41;39.30;;;14.48;;
54561;SDS011;69047;53.358;-1.486;2024-03-02T00:53:09;35.08;;;15.40;;
54561;SDS011;69047;53.358;-1.486;2024-03-02T00:55:37;32.05;;;15.65;;
54561;SDS011;69047;53.358;-1.486;2024-03-02T00:58:03;37.17;;;15.40;;
54561;SDS011;69047;53.358;-1.486;2024-03-02T01:00:28;39.65;;;17.05;;
54561;SDS011;69047;53.358;-1.486;2024-03-02T01:02:54;35.53;;;16.98;;
54561;SDS011;69047;53.358;-1.486;2024-03-02T01:05:19;35.55;;;15.23;;
54561;SDS011;69047;53.358;-1.486;2024-03-02T01:07:45;41.47;;;17.80;;
54561;SDS011;69047;53.358;-1.486;2024-03-02T01:10:10;35.28;;;16.20;;
54561;SDS011;69047;53.358;-1.486;2024-03-02T01:12:36;33.25;;;16.15;;
54561;SDS011;69047;53.358;-1.486;2024-03-02T01:15:03;34.00;;;16.67;;
54561;SDS011;69047;53.358;-1.486;2024-03-02T01:17:33;33.65;;;16.50;;
54561;SDS011;69047;53.358;-1.486;2024-03-02T01:19:58;37.15;;;17.88;;
54561;SDS011;69047;53.358;-1.486;2024-03-02T01:22:24;30.48;;;16.23;;
54561;SDS011;69047;53.358;-1.486;2024-03-02T01:24:50;36.83;;;16.52;;
54561;SDS011;69047;53.358;-1.486;2024-03-02T01:27:16;28.58;;;15.70;;
54561;SDS011;69047;53.358;-1.486;2024-03-02T01:29:41;39.92;;;16.30;;
54561;SDS011;69047;53.358;-1.486;2024-03-02T01:32:07;40.65;;;15.88;;
54561;SDS011;69047;53.358;-1.486;2024-03-02T01:34:36;36.55;;;16.88;;
54561;SDS011;69047;53.358;-1.486;2024-03-02T01:37:02;40.25;;;16.15;;
54561;SDS011;69047;53.358;-1.486;2024-03-02T01:39:28;29.95;;;14.65;;
54561;SDS011;69047;53.358;-1.486;2024-03-02T01:41:53;39.90;;;16.70;;
54561;SDS011;69047;53.358;-1.486;2024-03-02T01:44:18;34.65;;;17.60;;
54561;SDS011;69047;53.358;-1.486;2024-03-02T01:46:45;36.40;;;16.85;;
54561;SDS011;69047;53.358;-1.486;2024-03-02T01:49:12;36.40;;;16.67;;
54561;SDS011;69047;53.358;-1.486;2024-03-02T01:51:37;35.00;;;14.40;;
54561;SDS011;69047;53.358;-1.486;2024-03-02T01:54:03;35.58;;;16.13;;
54561;SDS011;69047;53.358;-1.486;2024-03-02T01:56:29;32.17;;;15.25;;
54561;SDS011;69047;53.358;-1.486;2024-03-02T01:58:54;27.45;;;14.20;;
54561;SDS011;69047;53.358;-1.486;2024-03-02T02:01:20;41.42;;;16.13;;
54561;SDS011;69047;53.358;-1.486;2024-03-02T02:03:45;33.95;;;15.52;;
54561;SDS011;69047;53.358;-1.486;2024-03-02T02:06:10;30.90;;;14.98;;
54561;SDS011;69047;53.358;-1.486;2024-03-02T02:08:39;36.90;;;16.88;;
54561;SDS011;69047;53.358;-1.486;2024-03-02T02:11:05;37.45;;;15.60;;
54561;SDS011;69047;53.358;-1.486;2024-03-02T02:13:30;34.10;;;17.27;;
54561;SDS011;69047;53.358;-1.486;2024-03-02T02:16:03;34.22;;;14.80;;
54561;SDS011;69047;53.358;-1.486;2024-03-02T02:18:29;35.35;;;16.52;;
54561;SDS011;69047;53.358;-1.486;2024-03-02T02:20:55;42.67;;;18.60;;
54561;SDS011;69047;53.358;-1.486;2024-03-02T02:23:20;35.35;;;17.25;;
54561;SDS011;69047;53.358;-1.486;2024-03-02T02:25:45;35.60;;;17.23;;
54561;SDS011;69047;53.358;-1.486;2024-03-02T02:28:11;40.33;;;18.48;;
54561;SDS011;69047;53.358;-1.486;2024-03-02T02:30:36;36.50;;;17.00;;
54561;SDS011;69047;53.358;-1.486;2024-03-02T02:33:02;40.92;;;16.90;;
54561;SDS011;69047;53.358;-1.486;2024-03-02T02:35:27;32.30;;;16.42;;
54561;SDS011;69047;53.358;-1.486;2024-03-02T02:37:54;33.10;;;15.43;;
54561;SDS011;69047;53.358;-1.486;2024-03-02T02:40:21;36.42;;;14.50;;
54561;SDS011;69047;53.358;-1.486;2024-03-02T02:42:47;31.85;;;14.95;;
54561;SDS011;69047;53.358;-1.486;2024-03-02T02:45:16;24.55;;;12.93;;
54561;SDS011;69047;53.358;-1.486;2024-03-02T02:47:44;34.83;;;14.23;;
54561;SDS011;69047;53.358;-1.486;2024-03-02T02:50:10;42.00;;;16.17;;
54561;SDS011;69047;53.358;-1.486;2024-03-02T02:52:37;28.15;;;15.25;;
54561;SDS011;69047;53.358;-1.486;2024-03-02T02:55:05;30.63;;;15.02;;
54561;SDS011;69047;53.358;-1.486;2024-03-02T02:57:32;30.65;;;14.32;;
54561;SDS011;69047;53.358;-1.486;2024-03-02T03:00:06;33.60;;;14.48;;
54561;SDS011;69047;53.358;-1.486;2024-03-02T03:02:39;33.78;;;15.88;;
54561;SDS011;69047;53.358;-1.486;2024-03-02T03:05:09;28.83;;;15.80;;
54561;SDS011;69047;53.358;-1.486;2024-03-02T03:07:36;32.35;;;17.33;;
54561;SDS011;69047;53.358;-1.486;2024-03-02T03:10:02;34.75;;;16.27;;
54561;SDS011;69047;53.358;-1.486;2024-03-02T03:12:29;29.77;;;16.40;;
54561;SDS011;69047;53.358;-1.486;2024-03-02T03:14:55;34.17;;;15.88;;
54561;SDS011;69047;53.358;-1.486;2024-03-02T03:17:23;32.20;;;16.80;;
54561;SDS011;69047;53.358;-1.486;2024-03-02T03:19:49;35.97;;;19.13;;
54561;SDS011;69047;53.358;-1.486;2024-03-02T03:22:15;44.17;;;19.42;;
54561;SDS011;69047;53.358;-1.486;2024-03-02T03:24:41;38.70;;;19.92;;
54561;SDS011;69047;53.358;-1.486;2024-03-02T03:27:06;38.10;;;19.95;;
54561;SDS011;69047;53.358;-1.486;2024-03-02T03:29:32;39.47;;;18.88;;
54561;SDS011;69047;53.358;-1.486;2024-03-02T03:31:57;40.35;;;19.50;;
54561;SDS011;69047;53.358;-1.486;2024-03-02T03:34:24;31.63;;;17.80;;
54561;SDS011;69047;53.358;-1.486;2024-03-02T03:36:54;41.78;;;17.67;;
54561;SDS011;69047;53.358;-1.486;2024-03-02T03:39:19;32.38;;;15.43;;
54561;SDS011;69047;53.358;-1.486;2024-03-02T03:41:45;32.97;;;14.60;;
54561;SDS011;69047;53.358;-1.486;2024-03-02T03:44:10;30.35;;;15.90;;
54561;SDS011;69047;53.358;-1.486;2024-03-02T03:46:36;35.83;;;15.98;;
54561;SDS011;69047;53.358;-1.486;2024-03-02T03:49:01;30.50;;;15.77;;
54561;SDS011;69047;53.358;-1.486;2024-03-02T03:51:28;30.08;;;15.00;;
54561;SDS011;69047;53.358;-1.486;2024-03-02T03:53:55;30.42;;;15.57;;
54561;SDS011;69047;53.358;-1.486;2024-03-02T03:56:21;29.40;;;14.15;;
54561;SDS011;69047;53.358;-1.486;2024-03-02T03:58:46;32.65;;;14.98;;
54561;SDS011;69047;53.358;-1.486;2024-03-02T04:01:11;27.48;;;14.90;;
54561;SDS011;69047;53.358;-1.486;2024-03-02T04:03:37;34.60;;;14.93;;
54561;SDS011;69047;53.358;-1.486;2024-03-02T04:06:03;32.72;;;15.40;;
54561;SDS011;69047;53.358;-1.486;2024-03-02T04:08:29;34.25;;;16.95;;
54561;SDS011;69047;53.358;-1.486;2024-03-02T04:10:54;34.30;;;16.17;;
54561;SDS011;69047;53.358;-1.486;2024-03-02T04:13:19;36.05;;;16.15;;
54561;SDS011;69047;53.358;-1.486;2024-03-02T04:15:45;38.13;;;16.45;;
54561;SDS011;69047;53.358;-1.486;2024-03-02T04:18:10;35.30;;;18.52;;
54561;SDS011;69047;53.358;-1.486;2024-03-02T04:20:36;42.85;;;19.88;;
54561;SDS011;69047;53.358;-1.486;2024-03-02T04:23:02;34.63;;;18.38;;
54561;SDS011;69047;53.358;-1.486;2024-03-02T04:25:27;41.92;;;19.73;;
54561;SDS011;69047;53.358;-1.486;2024-03-02T04:27:52;38.92;;;19.88;;
54561;SDS011;69047;53.358;-1.486;2024-03-02T04:30:18;38.67;;;20.10;;
54561;SDS011;69047;53.358;-1.486;2024-03-02T04:32:43;40.95;;;20.23;;
54561;SDS011;69047;53.358;-1.486;2024-03-02T04:35:11;35.85;;;19.00;;
54561;SDS011;69047;53.358;-1.486;2024-03-02T04:37:37;37.97;;;18.25;;
54561;SDS011;69047;53.358;-1.486;2024-03-02T04:40:03;41.08;;;18.55;;
54561;SDS011;69047;53.358;-1.486;2024-03-02T04:42:33;42.03;;;17.65;;
54561;SDS011;69047;53.358;-1.486;2024-03-02T04:44:58;36.55;;;18.60;;
54561;SDS011;69047;53.358;-1.486;2024-03-02T04:47:23;39.60;;;19.08;;
54561;SDS011;69047;53.358;-1.486;2024-03-02T04:49:49;46.47;;;21.48;;
54561;SDS011;69047;53.358;-1.486;2024-03-02T04:52:14;45.10;;;21.85;;
54561;SDS011;69047;53.358;-1.486;2024-03-02T04:54:40;51.55;;;22.90;;
54561;SDS011;69047;53.358;-1.486;2024-03-02T04:57:24;49.13;;;23.92;;
54561;SDS011;69047;53.358;-1.486;2024-03-02T04:59:49;47.75;;;26.20;;
54561;SDS011;69047;53.358;-1.486;2024-03-02T05:02:14;53.38;;;25.27;;
54561;SDS011;69047;53.358;-1.486;2024-03-02T05:04:40;49.83;;;24.67;;
54561;SDS011;69047;53.358;-1.486;2024-03-02T05:07:06;59.53;;;26.02;;
54561;SDS011;69047;53.358;-1.486;2024-03-02T05:09:31;55.88;;;26.88;;
54561;SDS011;69047;53.358;-1.486;2024-03-02T05:11:57;51.22;;;25.85;;
54561;SDS011;69047;53.358;-1.486;2024-03-02T05:14:48;50.63;;;25.58;;
54561;SDS011;69047;53.358;-1.486;2024-03-02T05:17:14;50.13;;;26.02;;
54561;SDS011;69047;53.358;-1.486;2024-03-02T05:19:39;46.88;;;25.45;;
54561;SDS011;69047;53.358;-1.486;2024-03-02T05:22:05;52.00;;;25.52;;
54561;SDS011;69047;53.358;-1.486;2024-03-02T05:24:31;51.47;;;24.52;;
54561;SDS011;69047;53.358;-1.486;2024-03-02T05:26:56;54.58;;;25.80;;
54561;SDS011;69047;53.358;-1.486;2024-03-02T05:29:22;58.60;;;25.92;;
54561;SDS011;69047;53.358;-1.486;2024-03-02T05:31:48;58.42;;;26.55;;
54561;SDS011;69047;53.358;-1.486;2024-03-02T05:34:14;49.67;;;27.20;;
54561;SDS011;69047;53.358;-1.486;2024-03-02T05:36:40;57.22;;;29.73;;
54561;SDS011;69047;53.358;-1.486;2024-03-02T05:39:05;63.50;;;29.85;;
54561;SDS011;69047;53.358;-1.486;2024-03-02T05:41:34;55.25;;;27.45;;
54561;SDS011;69047;53.358;-1.486;2024-03-02T05:44:00;59.72;;;28.00;;
54561;SDS011;69047;53.358;-1.486;2024-03-02T05:46:26;53.78;;;26.73;;
54561;SDS011;69047;53.358;-1.486;2024-03-02T05:48:52;61.25;;;29.35;;
54561;SDS011;69047;53.358;-1.486;2024-03-02T05:51:18;57.20;;;29.35;;
54561;SDS011;69047;53.358;-1.486;2024-03-02T05:53:43;56.50;;;26.40;;
54561;SDS011;69047;53.358;-1.486;2024-03-02T05:56:09;50.72;;;26.92;;
54561;SDS011;69047;53.358;-1.486;2024-03-02T05:58:34;50.50;;;26.35;;
54561;SDS011;69047;53.358;-1.486;2024-03-02T06:01:18;52.60;;;25.90;;
54561;SDS011;69047;53.358;-1.486;2024-03-02T06:03:44;49.22;;;24.83;;
54561;SDS011;69047;53.358;-1.486;2024-03-02T06:06:09;50.70;;;25.25;;
54561;SDS011;69047;53.358;-1.486;2024-03-02T06:08:35;50.38;;;26.42;;
54561;SDS011;69047;53.358;-1.486;2024-03-02T06:11:02;50.22;;;25.98;;
54561;SDS011;69047;53.358;-1.486;2024-03-02T06:13:29;51.50;;;27.27;;
54561;SDS011;69047;53.358;-1.486;2024-03-02T06:15:54;53.55;;;26.60;;
54561;SDS011;69047;53.358;-1.486;2024-03-02T06:18:20;63.78;;;28.95;;
54561;SDS011;69047;53.358;-1.486;2024-03-02T06:20:45;59.40;;;26.63;;
54561;SDS011;69047;53.358;-1.486;2024-03-02T06:23:10;51.58;;;25.80;;
54561;SDS011;69047;53.358;-1.486;2024-03-02T06:25:36;57.05;;;26.02;;
54561;SDS011;69047;53.358;-1.486;2024-03-02T06:28:01;55.00;;;25.85;;
54561;SDS011;69047;53.358;-1.486;2024-03-02T06:30:27;60.08;;;25.75;;
54561;SDS011;69047;53.358;-1.486;2024-03-02T06:32:53;64.95;;;26.73;;
54561;SDS011;69047;53.358;-1.486;2024-03-02T06:35:18;61.88;;;26.92;;
54561;SDS011;69047;53.358;-1.486;2024-03-02T06:37:43;53.15;;;25.05;;
54561;SDS011;69047;53.358;-1.486;2024-03-02T06:40:09;58.38;;;26.40;;
54561;SDS011;69047;53.358;-1.486;2024-03-02T06:42:35;50.72;;;24.48;;
54561;SDS011;69047;53.358;-1.486;2024-03-02T06:45:01;55.25;;;24.30;;
54561;SDS011;69047;53.358;-1.486;2024-03-02T06:47:34;53.78;;;24.85;;
54561;SDS011;69047;53.358;-1.486;2024-03-02T06:49:59;52.70;;;24.77;;
54561;SDS011;69047;53.358;-1.486;2024-03-02T06:52:24;61.00;;;26.50;;
54561;SDS011;69047;53.358;-1.486;2024-03-02T06:54:50;64.07;;;25.90;;
54561;SDS011;69047;53.358;-1.486;2024-03-02T06:57:15;64.70;;;28.60;;
54561;SDS011;69047;53.358;-1.486;2024-03-02T06:59:42;67.35;;;30.20;;
54561;SDS011;69047;53.358;-1.486;2024-03-02T07:02:07;67.43;;;30.02;;
54561;SDS011;69047;53.358;-1.486;2024-03-02T07:04:33;66.70;;;27.10;;
54561;SDS011;69047;53.358;-1.486;2024-03-02T07:06:59;77.20;;;29.80;;
54561;SDS011;69047;53.358;-1.486;2024-03-02T07:09:24;76.43;;;29.77;;
54561;SDS011;69047;53.358;-1.486;2024-03-02T07:11:50;68.57;;;31.05;;
54561;SDS011;69047;53.358;-1.486;2024-03-02T07:14:18;78.10;;;32.55;;
54561;SDS011;69047;53.358;-1.486;2024-03-02T07:17:08;68.97;;;30.15;;
54561;SDS011;69047;53.358;-1.486;2024-03-02T07:19:35;66.57;;;28.92;;
54561;SDS011;69047;53.358;-1.486;2024-03-02T07:22:00;66.45;;;30.08;;
54561;SDS011;69047;53.358;-1.486;2024-03-02T07:24:26;69.88;;;27.50;;
54561;SDS011;69047;53.358;-1.486;2024-03-02T07:26:52;74.10;;;31.65;;
54561;SDS011;69047;53.358;-1.486;2024-03-02T07:29:17;69.90;;;30.90;;
54561;SDS011;69047;53.358;-1.486;2024-03-02T07:31:43;78.97;;;31.98;;
54561;SDS011;69047;53.358;-1.486;2024-03-02T07:34:19;81.07;;;32.17;;
54561;SDS011;69047;53.358;-1.486;2024-03-02T07:36:48;71.22;;;30.63;;
54561;SDS011;69047;53.358;-1.486;2024-03-02T07:39:13;67.93;;;29.50;;
54561;SDS011;69047;53.358;-1.486;2024-03-02T07:41:39;61.25;;;28.58;;
54561;SDS011;69047;53.358;-1.486;2024-03-02T07:44:04;64.88;;;28.88;;
54561;SDS011;69047;53.358;-1.486;2024-03-02T07:46:30;57.95;;;27.23;;
54561;SDS011;69047;53.358;-1.486;2024-03-02T07:48:55;67.97;;;30.13;;
54561;SDS011;69047;53.358;-1.486;2024-03-02T07:51:20;66.47;;;26.98;;
54561;SDS011;69047;53.358;-1.486;2024-03-02T07:53:46;57.67;;;26.00;;
54561;SDS011;69047;53.358;-1.486;2024-03-02T07:56:11;54.53;;;24.17;;
54561;SDS011;69047;53.358;-1.486;2024-03-02T07:58:37;47.13;;;23.63;;
54561;SDS011;69047;53.358;-1.486;2024-03-02T08:01:02;44.83;;;22.40;;
54561;SDS011;69047;53.358;-1.486;2024-03-02T08:03:28;40.83;;;21.40;;
54561;SDS011;69047;53.358;-1.486;2024-03-02T08:05:53;39.97;;;19.65;;
54561;SDS011;69047;53.358;-1.486;2024-03-02T08:08:18;45.42;;;21.00;;
54561;SDS011;69047;53.358;-1.486;2024-03-02T08:10:44;44.95;;;20.65;;
54561;SDS011;69047;53.358;-1.486;2024-03-02T08:13:09;40.80;;;22.58;;
54561;SDS011;69047;53.358;-1.486;2024-03-02T08:15:35;45.83;;;21.50;;
54561;SDS011;69047;53.358;-1.486;2024-03-02T08:18:00;48.63;;;21.52;;
54561;SDS011;69047;53.358;-1.486;2024-03-02T08:20:26;52.17;;;24.63;;
54561;SDS011;69047;53.358;-1.486;2024-03-02T08:22:52;45.55;;;20.90;;
54561;SDS011;69047;53.358;-1.486;2024-03-02T08:25:20;38.22;;;20.00;;
54561;SDS011;69047;53.358;-1.486;2024-03-02T08:27:45;39.70;;;19.50;;
54561;SDS011;69047;53.358;-1.486;2024-03-02T08:30:11;38.55;;;19.88;;
54561;SDS011;69047;53.358;-1.486;2024-03-02T08:32:37;35.90;;;20.02;;
54561;SDS011;69047;53.358;-1.486;2024-03-02T08:35:03;40.58;;;19.73;;
54561;SDS011;69047;53.358;-1.486;2024-03-02T08:37:29;37.17;;;18.73;;
54561;SDS011;69047;53.358;-1.486;2024-03-02T08:39:54;37.40;;;17.75;;
54561;SDS011;69047;53.358;-1.486;2024-03-02T08:42:20;34.92;;;17.38;;
54561;SDS011;69047;53.358;-1.486;2024-03-02T08:44:45;41.60;;;20.05;;
54561;SDS011;69047;53.358;-1.486;2024-03-02T08:47:11;42.70;;;20.60;;
54561;SDS011;69047;53.358;-1.486;2024-03-02T08:49:36;36.03;;;19.35;;
54561;SDS011;69047;53.358;-1.486;2024-03-02T08:52:02;30.50;;;16.95;;
54561;SDS011;69047;53.358;-1.486;2024-03-02T08:54:28;31.60;;;18.20;;
54561;SDS011;69047;53.358;-1.486;2024-03-02T08:56:56;29.75;;;16.40;;
54561;SDS011;69047;53.358;-1.486;2024-03-02T08:59:21;28.00;;;14.73;;
54561;SDS011;69047;53.358;-1.486;2024-03-02T09:01:47;37.42;;;16.50;;
54561;SDS011;69047;53.358;-1.486;2024-03-02T09:04:12;28.92;;;15.55;;
54561;SDS011;69047;53.358;-1.486;2024-03-02T09:06:38;24.25;;;11.73;;
54561;SDS011;69047;53.358;-1.486;2024-03-02T09:09:13;30.23;;;14.88;;
54561;SDS011;69047;53.358;-1.486;2024-03-02T09:11:38;21.83;;;12.77;;
54561;SDS011;69047;53.358;-1.486;2024-03-02T09:14:06;30.05;;;13.23;;
54561;SDS011;69047;53.358;-1.486;2024-03-02T09:16:40;25.75;;;12.75;;
54561;SDS011;69047;53.358;-1.486;2024-03-02T09:19:05;24.52;;;12.00;;
54561;SDS011;69047;53.358;-1.486;2024-03-02T09:21:31;28.73;;;12.85;;
54561;SDS011;69047;53.358;-1.486;2024-03-02T09:23:56;26.27;;;13.23;;
54561;SDS011;69047;53.358;-1.486;2024-03-02T09:26:22;24.05;;;12.15;;
54561;SDS011;69047;53.358;-1.486;2024-03-02T09:28:49;26.00;;;13.25;;
54561;SDS011;69047;53.358;-1.486;2024-03-02T09:31:16;28.88;;;11.93;;
54561;SDS011;69047;53.358;-1.486;2024-03-02T09:33:42;28.00;;;10.65;;
54561;SDS011;69047;53.358;-1.486;2024-03-02T09:36:20;27.15;;;9.60;;
54561;SDS011;69047;53.358;-1.486;2024-03-02T09:38:47;17.42;;;8.85;;
54561;SDS011;69047;53.358;-1.486;2024-03-02T09:41:13;27.10;;;10.20;;
54561;SDS011;69047;53.358;-1.486;2024-03-02T09:43:40;26.08;;;10.30;;
54561;SDS011;69047;53.358;-1.486;2024-03-02T09:46:05;17.55;;;9.30;;
54561;SDS011;69047;53.358;-1.486;2024-03-02T09:48:33;28.67;;;9.98;;
54561;SDS011;69047;53.358;-1.486;2024-03-02T09:51:00;21.55;;;8.30;;
54561;SDS011;69047;53.358;-1.486;2024-03-02T09:53:28;24.98;;;9.20;;
54561;SDS011;69047;53.358;-1.486;2024-03-02T09:55:56;22.95;;;8.05;;
54561;SDS011;69047;53.358;-1.486;2024-03-02T09:58:22;19.67;;;7.53;;
54561;SDS011;69047;53.358;-1.486;2024-03-02T10:00:47;26.63;;;8.00;;
54561;SDS011;69047;53.358;-1.486;2024-03-02T10:03:14;19.13;;;6.43;;
54561;SDS011;69047;53.358;-1.486;2024-03-02T10:05:39;18.23;;;6.07;;
54561;SDS011;69047;53.358;-1.486;2024-03-02T10:08:07;22.25;;;6.22;;
54561;SDS011;69047;53.358;-1.486;2024-03-02T10:10:37;23.10;;;7.00;;
54561;SDS011;69047;53.358;-1.486;2024-03-02T10:13:08;11.75;;;4.78;;
54561;SDS011;69047;53.358;-1.486;2024-03-02T10:15:37;21.42;;;6.43;;
54561;SDS011;69047;53.358;-1.486;2024-03-02T10:18:08;20.98;;;6.45;;
54561;SDS011;69047;53.358;-1.486;2024-03-02T10:20:37;26.33;;;6.95;;
54561;SDS011;69047;53.358;-1.486;2024-03-02T10:23:13;21.92;;;5.60;;
54561;SDS011;69047;53.358;-1.486;2024-03-02T10:25:41;15.73;;;5.72;;
54561;SDS011;69047;53.358;-1.486;2024-03-02T10:28:07;20.77;;;6.38;;
54561;SDS011;69047;53.358;-1.486;2024-03-02T10:30:33;19.75;;;5.43;;
54561;SDS011;69047;53.358;-1.486;2024-03-02T10:33:00;19.02;;;6.55;;
54561;SDS011;69047;53.358;-1.486;2024-03-02T10:35:27;24.48;;;5.75;;
54561;SDS011;69047;53.358;-1.486;2024-03-02T10:37:52;18.58;;;5.25;;
54561;SDS011;69047;53.358;-1.486;2024-03-02T10:40:18;23.00;;;5.70;;
54561;SDS011;69047;53.358;-1.486;2024-03-02T10:42:46;15.85;;;5.95;;
54561;SDS011;69047;53.358;-1.486;2024-03-02T10:45:20;24.75;;;6.05;;
54561;SDS011;69047;53.358;-1.486;2024-03-02T10:47:50;25.10;;;6.20;;
54561;SDS011;69047;53.358;-1.486;2024-03-02T10:50:16;29.13;;;5.75;;
54561;SDS011;69047;53.358;-1.486;2024-03-02T10:52:42;29.55;;;8.30;;
54561;SDS011;69047;53.358;-1.486;2024-03-02T10:55:08;23.33;;;5.65;;
54561;SDS011;69047;53.358;-1.486;2024-03-02T10:57:53;18.42;;;4.57;;
54561;SDS011;69047;53.358;-1.486;2024-03-02T11:00:21;21.10;;;5.28;;
54561;SDS011;69047;53.358;-1.486;2024-03-02T11:02:57;14.98;;;4.28;;
54561;SDS011;69047;53.358;-1.486;2024-03-02T11:05:36;21.23;;;4.78;;
54561;SDS011;69047;53.358;-1.486;2024-03-02T11:08:07;13.40;;;4.37;;
54561;SDS011;69047;53.358;-1.486;2024-03-02T11:10:37;22.38;;;5.32;;
54561;SDS011;69047;53.358;-1.486;2024-03-02T11:13:09;25.13;;;6.47;;
54561;SDS011;69047;53.358;-1.486;2024-03-02T11:15:37;22.15;;;4.72;;
54561;SDS011;69047;53.358;-1.486;2024-03-02T11:18:05;25.55;;;7.30;;
54561;SDS011;69047;53.358;-1.486;2024-03-02T11:20:37;36.83;;;5.85;;
54561;SDS011;69047;53.358;-1.486;2024-03-02T11:23:07;20.02;;;6.50;;
54561;SDS011;69047;53.358;-1.486;2024-03-02T11:25:34;28.83;;;7.80;;
54561;SDS011;69047;53.358;-1.486;2024-03-02T11:28:01;30.75;;;6.05;;
54561;SDS011;69047;53.358;-1.486;2024-03-02T11:32:56;17.23;;;5.80;;
54561;SDS011;69047;53.358;-1.486;2024-03-02T11:35:30;27.65;;;6.05;;
54561;SDS011;69047;53.358;-1.486;2024-03-02T11:37:56;22.90;;;4.85;;
54561;SDS011;69047;53.358;-1.486;2024-03-02T11:40:26;30.15;;;6.90;;
54561;SDS011;69047;53.358;-1.486;2024-03-02T11:42:53;22.45;;;5.25;;
54561;SDS011;69047;53.358;-1.486;2024-03-02T11:45:27;19.63;;;6.25;;
54561;SDS011;69047;53.358;-1.486;2024-03-02T11:47:58;30.25;;;4.82;;
54561;SDS011;69047;53.358;-1.486;2024-03-02T11:50:30;22.45;;;5.80;;
54561;SDS011;69047;53.358;-1.486;2024-03-02T11:53:00;35.20;;;5.88;;
54561;SDS011;69047;53.358;-1.486;2024-03-02T11:55:26;29.58;;;6.25;;
54561;SDS011;69047;53.358;-1.486;2024-03-02T11:57:52;35.45;;;6.35;;
54561;SDS011;69047;53.358;-1.486;2024-03-02T12:00:18;22.00;;;6.30;;
54561;SDS011;69047;53.358;-1.486;2024-03-02T12:02:47;21.75;;;6.88;;
54561;SDS011;69047;53.358;-1.486;2024-03-02T12:05:24;25.05;;;6.20;;
54561;SDS011;69047;53.358;-1.486;2024-03-02T12:07:55;24.27;;;6.63;;
54561;SDS011;69047;53.358;-1.486;2024-03-02T12:10:29;21.25;;;6.20;;
54561;SDS011;69047;53.358;-1.486;2024-03-02T12:13:01;16.05;;;5.25;;
54561;SDS011;69047;53.358;-1.486;2024-03-02T12:15:33;20.90;;;4.40;;
54561;SDS011;69047;53.358;-1.486;2024-03-02T12:18:02;16.70;;;5.22;;
54561;SDS011;69047;53.358;-1.486;2024-03-02T12:20:36;21.55;;;5.88;;
54561;SDS011;69047;53.358;-1.486;2024-03-02T12:23:02;23.55;;;6.20;;
54561;SDS011;69047;53.358;-1.486;2024-03-02T12:25:30;17.60;;;5.22;;
54561;SDS011;69047;53.358;-1.486;2024-03-02T12:27:59;23.30;;;4.75;;
54561;SDS011;69047;53.358;-1.486;2024-03-02T12:30:26;21.15;;;4.85;;
54561;SDS011;69047;53.358;-1.486;2024-03-02T12:32:54;23.88;;;6.95;;
54561;SDS011;69047;53.358;-1.486;2024-03-02T12:35:20;23.75;;;6.45;;
54561;SDS011;69047;53.358;-1.486;2024-03-02T12:37:49;19.17;;;5.65;;
54561;SDS011;69047;53.358;-1.486;2024-03-02T12:40:17;17.08;;;6.47;;
54561;SDS011;69047;53.358;-1.486;2024-03-02T12:42:43;25.70;;;7.28;;
54561;SDS011;69047;53.358;-1.486;2024-03-02T12:45:14;19.08;;;3.67;;
54561;SDS011;69047;53.358;-1.486;2024-03-02T12:47:53;13.10;;;3.42;;
54561;SDS011;69047;53.358;-1.486;2024-03-02T12:50:18;10.25;;;3.35;;
54561;SDS011;69047;53.358;-1.486;2024-03-02T12:52:50;6.28;;;1.67;;
54561;SDS011;69047;53.358;-1.486;2024-03-02T12:55:16;4.22;;;1.60;;
54561;SDS011;69047;53.358;-1.486;2024-03-02T12:57:42;4.70;;;2.05;;
54561;SDS011;69047;53.358;-1.486;2024-03-02T13:00:09;5.00;;;0.60;;
54561;SDS011;69047;53.358;-1.486;2024-03-02T13:02:35;2.03;;;0.73;;
54561;SDS011;69047;53.358;-1.486;2024-03-02T13:05:02;2.78;;;0.50;;
54561;SDS011;69047;53.358;-1.486;2024-03-02T13:07:28;1.00;;;0.60;;
54561;SDS011;69047;53.358;-1.486;2024-03-02T13:09:54;2.50;;;0.50;;
54561;SDS011;69047;53.358;-1.486;2024-03-02T13:12:21;0.65;;;0.50;;
54561;SDS011;69047;53.358;-1.486;2024-03-02T13:14:49;2.67;;;0.80;;
54561;SDS011;69047;53.358;-1.486;2024-03-02T13:17:17;5.38;;;0.82;;
54561;SDS011;69047;53.358;-1.486;2024-03-02T13:19:50;4.38;;;1.98;;
54561;SDS011;69047;53.358;-1.486;2024-03-02T13:22:20;3.55;;;0.88;;
54561;SDS011;69047;53.358;-1.486;2024-03-02T13:24:46;1.90;;;0.77;;
54561;SDS011;69047;53.358;-1.486;2024-03-02T13:27:12;5.05;;;1.38;;
54561;SDS011;69047;53.358;-1.486;2024-03-02T13:29:37;0.90;;;0.57;;
54561;SDS011;69047;53.358;-1.486;2024-03-02T13:32:03;1.35;;;0.70;;
54561;SDS011;69047;53.358;-1.486;2024-03-02T13:34:29;7.95;;;1.52;;
54561;SDS011;69047;53.358;-1.486;2024-03-02T13:36:56;4.32;;;1.77;;
54561;SDS011;69047;53.358;-1.486;2024-03-02T13:39:22;2.70;;;1.13;;
54561;SDS011;69047;53.358;-1.486;2024-03-02T13:41:48;2.67;;;0.55;;
54561;SDS011;69047;53.358;-1.486;2024-03-02T13:44:21;2.70;;;0.90;;
54561;SDS011;69047;53.358;-1.486;2024-03-02T13:46:47;1.63;;;0.50;;
54561;SDS011;69047;53.358;-1.486;2024-03-02T13:49:13;1.35;;;0.73;;
54561;SDS011;69047;53.358;-1.486;2024-03-02T13:51:39;5.43;;;0.70;;
54561;SDS011;69047;53.358;-1.486;2024-03-02T13:54:07;7.75;;;3.03;;
54561;SDS011;69047;53.358;-1.486;2024-03-02T13:56:32;5.82;;;2.58;;
54561;SDS011;69047;53.358;-1.486;2024-03-02T13:58:58;2.30;;;0.80;;
54561;SDS011;69047;53.358;-1.486;2024-03-02T14:01:24;3.65;;;1.40;;
54561;SDS011;69047;53.358;-1.486;2024-03-02T14:03:50;3.88;;;1.30;;
54561;SDS011;69047;53.358;-1.486;2024-03-02T14:06:16;2.45;;;0.88;;
54561;SDS011;69047;53.358;-1.486;2024-03-02T14:08:41;6.20;;;1.45;;
54561;SDS011;69047;53.358;-1.486;2024-03-02T14:11:09;2.72;;;0.80;;
54561;SDS011;69047;53.358;-1.486;2024-03-02T14:13:39;2.13;;;1.00;;
54561;SDS011;69047;53.358;-1.486;2024-03-02T14:16:06;2.53;;;0.90;;
54561;SDS011;69047;53.358;-1.486;2024-03-02T14:18:31;3.83;;;1.27;;
54561;SDS011;69047;53.358;-1.486;2024-03-02T14:20:57;2.22;;;1.13;;